Time;durP1;ratioP1;P1;durP2;ratioP2;P2;SDS_P1;SDS_P2;PMS_P1;PMS_P2;Temp;Humidity;BMP_temperature;BMP_pressure;BME280_temperature;BME280_humidity;BME280_pressure;Samples;Min_cycle;Max_cycle;Signal;HPM_P1;HPM_P2
2024/01/12 00:00:25;;;;;;;;;;;;;;;19.93;38.58;102537.97;2059795;28;6340;-63
2024/01/12 00:01:29;;;;;;;;;;;;;;;19.94;38.66;102535.84;2059171;28;2133;-63
2024/01/12 00:02:30;;;;;;;;;;;;;;;19.93;38.47;102532.22;2059571;28;2315;-63
2024/01/12 00:03:34;;;;;;;;;;;;;;;19.94;38.65;102539.47;2061922;28;2056;-63
2024/01/12 00:04:35;;;;;;;;;;;;;;;19.95;38.69;102538.13;2059296;28;2148;-62
2024/01/12 00:05:37;;;;;;;;;;;;;;;19.94;38.62;102545.22;2062948;28;1673;-63
2024/01/12 00:06:39;;;;;;;;;;;;;;;19.94;38.66;102536.59;2060875;28;2139;-63
2024/01/12 00:07:40;;;;;;;;;;;;;;;19.95;38.66;102541.00;2058956;28;2279;-63
2024/01/12 00:08:42;;;;;;;;;;;;;;;19.96;38.54;102548.25;2058442;28;2169;-63
2024/01/12 00:09:43;;;;;;;;;;;;;;;19.97;38.60;102546.88;2057190;28;2217;-62
2024/01/12 00:10:45;;;;;;;;;;;;;;;19.96;38.54;102542.50;2057322;28;2134;-63
2024/01/12 00:11:46;;;;;;;;;;;;;;;19.95;38.61;102541.00;2054627;28;2369;-63
2024/01/12 00:12:48;;;;;;;;;;;;;;;19.97;38.56;102544.00;2059047;28;2258;-62
2024/01/12 00:13:49;;;;;;;;;;;;;;;19.98;38.69;102545.53;2059004;28;2506;-63
2024/01/12 00:14:51;;;;;;;;;;;;;;;19.97;38.58;102552.63;2064277;28;1746;-63
2024/01/12 00:15:52;;;;;;;;;;;;;;;19.97;38.71;102549.75;2058845;28;1804;-62
2024/01/12 00:16:54;;;;;;;;;;;;;;;19.97;38.68;102544.00;2061537;28;1693;-62
2024/01/12 00:17:55;;;;;;;;;;;;;;;19.97;38.71;102546.88;2063568;28;1576;-62
2024/01/12 00:18:57;;;;;;;;;;;;;;;19.97;38.78;102549.00;2059860;28;1623;-63
2024/01/12 00:19:58;;;;;;;;;;;;;;;19.97;38.81;102554.75;2060401;28;2009;-63
2024/01/12 00:20:59;;;;;;;;;;;;;;;19.96;38.80;102548.25;2060219;28;2154;-63
2024/01/12 00:22:01;;;;;;;;;;;;;;;19.97;38.79;102561.25;2060125;28;2101;-62
2024/01/12 00:23:02;;;;;;;;;;;;;;;19.96;38.84;102551.13;2061356;28;2095;-63
2024/01/12 00:24:04;;;;;;;;;;;;;;;19.97;38.72;102566.25;2057616;28;2399;-62
2024/01/12 00:25:05;;;;;;;;;;;;;;;19.96;38.66;102559.75;2058468;28;2228;-62
2024/01/12 00:26:07;;;;;;;;;;;;;;;19.96;38.86;102548.25;2057796;28;2164;-62
2024/01/12 00:27:08;;;;;;;;;;;;;;;19.95;38.85;102549.63;2061967;28;2140;-62
2024/01/12 00:28:09;;;;;;;;;;;;;;;19.96;38.83;102553.25;2062397;28;1738;-62
2024/01/12 00:29:15;;;;;;;;;;;;;;;19.95;38.84;102557.47;2060290;28;1711;-62
2024/01/12 00:30:17;;;;;;;;;;;;;;;19.96;38.94;102553.25;2057217;28;6538;-63
2024/01/12 00:31:18;;;;;;;;;;;;;;;19.95;38.87;102554.59;2059654;28;2154;-63
2024/01/12 00:32:20;;;;;;;;;;;;;;;19.94;38.85;102550.22;2060396;28;1798;-62
2024/01/12 00:33:21;;;;;;;;;;;;;;;19.94;38.72;102556.72;2061571;28;2017;-63
2024/01/12 00:34:23;;;;;;;;;;;;;;;19.94;38.90;102556.72;2061900;28;1583;-62
2024/01/12 00:35:24;;;;;;;;;;;;;;;19.94;38.96;102550.22;2060416;28;1853;-63
2024/01/12 00:36:26;;;;;;;;;;;;;;;19.92;38.92;102559.44;2058287;28;2348;-62
2024/01/12 00:37:30;;;;;;;;;;;;;;;19.93;38.75;102555.22;2064988;28;1683;-63
2024/01/12 00:38:31;;;;;;;;;;;;;;;19.93;38.84;102552.34;2061386;28;1705;-62
2024/01/12 00:39:33;;;;;;;;;;;;;;;19.93;38.74;102555.22;2061579;28;1635;-62
2024/01/12 00:40:34;;;;;;;;;;;;;;;19.91;38.80;102552.19;2060867;28;2405;-63
2024/01/12 00:41:35;;;;;;;;;;;;;;;19.92;38.91;102553.69;2058315;28;2303;-62
2024/01/12 00:42:37;;;;;;;;;;;;;;;19.93;38.76;102552.34;2059366;28;2153;-63
2024/01/12 00:43:38;;;;;;;;;;;;;;;19.93;38.79;102543.72;2060753;28;1983;-62
2024/01/12 00:44:40;;;;;;;;;;;;;;;19.93;38.69;102543.72;2060437;28;1592;-63
2024/01/12 00:45:41;;;;;;;;;;;;;;;19.93;38.91;102552.34;2062727;28;1521;-63
2024/01/12 00:46:44;;;;;;;;;;;;;;;19.93;38.69;102549.47;2058868;28;2182;-62
2024/01/12 00:47:45;;;;;;;;;;;;;;;19.94;38.80;102544.47;2058922;28;2412;-63
2024/01/12 00:48:49;;;;;;;;;;;;;;;19.95;38.89;102549.63;2058945;28;2124;-62
2024/01/12 00:49:51;;;;;;;;;;;;;;;19.95;38.75;102552.50;2058139;28;2203;-63
2024/01/12 00:50:53;;;;;;;;;;;;;;;19.95;38.94;102546.75;2061526;28;2472;-64
2024/01/12 00:51:54;;;;;;;;;;;;;;;19.96;38.91;102548.25;2059756;28;2133;-64
2024/01/12 00:52:56;;;;;;;;;;;;;;;19.96;38.93;102548.25;2058218;28;2145;-64
2024/01/12 00:53:57;;;;;;;;;;;;;;;19.95;38.79;102546.75;2049754;28;2120;-64
2024/01/12 00:54:59;;;;;;;;;;;;;;;19.96;38.87;102554.00;2054926;28;2056;-64
2024/01/12 00:56:01;;;;;;;;;;;;;;;19.96;38.84;102548.25;2058325;28;2093;-64
2024/01/12 00:57:02;;;;;;;;;;;;;;;19.96;38.88;102554.00;2059042;28;2046;-64
2024/01/12 00:58:03;;;;;;;;;;;;;;;19.96;38.75;102556.13;2059694;28;2164;-64
2024/01/12 00:59:05;;;;;;;;;;;;;;;19.96;38.84;102554.00;2058737;28;2161;-64
2024/01/12 01:00:07;;;;;;;;;;;;;;;19.96;38.80;102548.25;2056218;28;6189;-64
2024/01/12 01:01:08;;;;;;;;;;;;;;;19.96;38.96;102554.00;2059655;28;2451;-63
2024/01/12 01:02:10;;;;;;;;;;;;;;;19.95;38.90;102552.50;2059475;28;2198;-63
2024/01/12 01:03:11;;;;;;;;;;;;;;;19.95;38.86;102555.38;2059617;28;2419;-63
2024/01/12 01:04:13;;;;;;;;;;;;;;;19.94;38.87;102555.97;2057250;28;2120;-63
2024/01/12 01:05:15;;;;;;;;;;;;;;;19.94;39.10;102545.22;2058102;28;2004;-64
2024/01/12 01:06:16;;;;;;;;;;;;;;;19.94;38.94;102559.59;2057917;28;2168;-64
2024/01/12 01:07:18;;;;;;;;;;;;;;;19.94;38.93;102559.59;2060370;28;2357;-64
2024/01/12 01:08:19;;;;;;;;;;;;;;;19.93;38.88;102555.22;2059164;28;2126;-63
2024/01/12 01:09:20;;;;;;;;;;;;;;;19.94;39.00;102555.97;2059220;28;2140;-63
2024/01/12 01:10:22;;;;;;;;;;;;;;;19.93;38.97;102555.22;2059654;28;2196;-64
2024/01/12 01:11:23;;;;;;;;;;;;;;;19.93;38.96;102555.22;2057979;28;2338;-64
2024/01/12 01:12:25;;;;;;;;;;;;;;;19.92;39.08;102550.81;2049899;28;2120;-63
2024/01/12 01:13:26;;;;;;;;;;;;;;;19.92;39.05;102547.94;2054849;28;2291;-64
2024/01/12 01:14:28;;;;;;;;;;;;;;;19.92;38.99;102552.94;2059389;28;1715;-64
2024/01/12 01:15:29;;;;;;;;;;;;;;;19.92;39.07;102547.19;2056191;28;1711;-64
2024/01/12 01:16:30;;;;;;;;;;;;;;;19.91;39.04;102545.69;2052957;28;2017;-63
2024/01/12 01:17:32;;;;;;;;;;;;;;;19.92;39.09;102547.19;2059844;28;1865;-64
2024/01/12 01:18:33;;;;;;;;;;;;;;;19.91;39.06;102545.69;2062547;28;1710;-64
2024/01/12 01:19:38;;;;;;;;;;;;;;;19.91;39.07;102548.56;2056364;28;2167;-63
2024/01/12 01:20:39;;;;;;;;;;;;;;;19.91;39.02;102543.56;2058642;28;2180;-64
2024/01/12 01:21:40;;;;;;;;;;;;;;;19.91;38.96;102552.19;2060532;28;2040;-64
2024/01/12 01:22:42;;;;;;;;;;;;;;;19.91;39.05;102549.31;2061250;28;1734;-64
2024/01/12 01:23:43;;;;;;;;;;;;;;;19.91;39.09;102551.44;2059391;28;2083;-64
2024/01/12 01:24:45;;;;;;;;;;;;;;;19.93;38.94;102548.69;2064334;28;1667;-63
2024/01/12 01:25:46;;;;;;;;;;;;;;;19.94;38.98;102550.22;2060955;28;1624;-63
2024/01/12 01:26:47;;;;;;;;;;;;;;;19.93;38.99;102543.72;2060852;28;1639;-64
2024/01/12 01:27:49;;;;;;;;;;;;;;;19.93;39.07;102543.72;2059776;28;2009;-66
2024/01/12 01:28:51;;;;;;;;;;;;;;;19.95;39.00;102552.50;2061914;28;1634;-64
2024/01/12 01:29:52;;;;;;;;;;;;;;;19.94;38.90;102547.34;2056364;28;2208;-68
2024/01/12 01:30:53;;;;;;;;;;;;;;;19.94;39.04;102545.22;2059689;28;6130;-64
2024/01/12 01:31:55;;;;;;;;;;;;;;;19.95;39.08;102549.63;2058269;28;2361;-64
2024/01/12 01:32:56;;;;;;;;;;;;;;;19.96;38.95;102541.75;2059785;28;2251;-64
2024/01/12 01:33:58;;;;;;;;;;;;;;;19.96;39.03;102542.50;2058679;28;2102;-64
2024/01/12 01:35:00;;;;;;;;;;;;;;;19.95;38.97;102535.25;2056657;28;2073;-64
2024/01/12 01:36:01;;;;;;;;;;;;;;;19.96;39.00;102542.50;2058525;28;2105;-64
2024/01/12 01:37:04;;;;;;;;;;;;;;;19.95;38.99;102535.25;2059210;28;2170;-64
2024/01/12 01:38:06;;;;;;;;;;;;;;;19.95;38.92;102535.25;2057759;28;2131;-63
2024/01/12 01:39:08;;;;;;;;;;;;;;;19.95;39.03;102531.59;2057033;28;2126;-64
2024/01/12 01:40:09;;;;;;;;;;;;;;;19.94;38.98;102522.22;2060814;28;2129;-63
2024/01/12 01:41:11;;;;;;;;;;;;;;;19.95;39.07;102526.63;2059270;28;2130;-64
2024/01/12 01:42:12;;;;;;;;;;;;;;;19.94;39.12;102522.22;2057924;28;2170;-63
2024/01/12 01:43:13;;;;;;;;;;;;;;;19.93;39.00;102519.94;2059296;28;2109;-63
2024/01/12 01:44:15;;;;;;;;;;;;;;;19.94;39.09;102522.22;2056337;28;2122;-64
2024/01/12 01:45:16;;;;;;;;;;;;;;;19.94;39.08;102524.34;2056918;28;2081;-63
2024/01/12 01:46:18;;;;;;;;;;;;;;;19.94;39.12;102530.09;2061540;28;2108;-63
2024/01/12 01:47:19;;;;;;;;;;;;;;;19.93;39.09;102520.72;2062215;28;1656;-64
2024/01/12 01:48:21;;;;;;;;;;;;;;;19.93;39.14;102525.69;2059967;28;1877;-64
2024/01/12 01:49:22;;;;;;;;;;;;;;;19.92;39.04;102524.94;2060646;28;2496;-63
2024/01/12 01:50:24;;;;;;;;;;;;;;;19.93;39.14;102525.69;2058283;28;2157;-64
2024/01/12 01:51:25;;;;;;;;;;;;;;;19.91;39.08;102520.56;2060223;28;2198;-64
2024/01/12 01:52:27;;;;;;;;;;;;;;;19.91;39.10;102517.69;2056828;28;2215;-64
2024/01/12 01:53:29;;;;;;;;;;;;;;;19.92;39.16;102524.94;2058979;28;2121;-63
2024/01/12 01:54:30;;;;;;;;;;;;;;;19.92;39.02;102521.31;2061352;28;2057;-64
2024/01/12 01:55:32;;;;;;;;;;;;;;;19.91;39.06;102523.44;2061774;28;1718;-64
2024/01/12 01:56:34;;;;;;;;;;;;;;;19.91;38.99;102534.94;2060138;28;1611;-64
2024/01/12 01:57:35;;;;;;;;;;;;;;;19.90;38.98;102527.66;2063482;28;1753;-63
2024/01/12 01:58:37;;;;;;;;;;;;;;;19.91;39.02;102523.44;2053157;28;1989;-63
2024/01/12 01:59:38;;;;;;;;;;;;;;;19.90;38.97;102524.78;2053603;28;1886;-63
2024/01/12 02:00:40;;;;;;;;;;;;;;;19.92;39.05;102532.81;2058468;28;6092;-64
2024/01/12 02:01:41;;;;;;;;;;;;;;;19.92;39.11;102529.94;2060998;28;1981;-63
2024/01/12 02:02:43;;;;;;;;;;;;;;;19.93;38.96;102526.47;2059507;28;1665;-63
2024/01/12 02:03:45;;;;;;;;;;;;;;;19.91;39.01;102526.31;2057706;28;2214;-64
2024/01/12 02:04:47;;;;;;;;;;;;;;;19.92;39.12;102530.69;2050632;28;2031;-64
2024/01/12 02:05:48;;;;;;;;;;;;;;;19.93;39.17;102520.72;2050464;28;2146;-64
2024/01/12 02:06:51;;;;;;;;;;;;;;;19.93;39.11;102519.94;2049055;28;2240;-63
2024/01/12 02:07:52;;;;;;;;;;;;;;;19.94;39.15;102521.47;2050419;28;2142;-64
2024/01/12 02:08:54;;;;;;;;;;;;;;;19.93;39.15;102529.34;2057775;28;2189;-64
2024/01/12 02:09:56;;;;;;;;;;;;;;;19.94;39.07;102522.22;2051156;28;2158;-64
2024/01/12 02:10:57;;;;;;;;;;;;;;;19.94;39.15;102522.22;2047338;28;2402;-63
2024/01/12 02:11:59;;;;;;;;;;;;;;;19.95;39.04;102523.75;2059435;28;2177;-64
2024/01/12 02:13:00;;;;;;;;;;;;;;;19.94;39.07;102516.47;2057870;28;2149;-63
2024/01/12 02:14:06;;;;;;;;;;;;;;;19.94;38.99;102516.47;2058483;28;2157;-64
2024/01/12 02:15:09;;;;;;;;;;;;;;;19.93;39.01;102520.72;2056266;28;2121;-63
2024/01/12 02:16:11;;;;;;;;;;;;;;;19.94;38.91;102522.22;2058221;28;2223;-64
2024/01/12 02:17:12;;;;;;;;;;;;;;;19.95;39.13;102529.50;2058055;28;2143;-64
2024/01/12 02:18:13;;;;;;;;;;;;;;;19.93;39.16;102520.72;2058691;28;2193;-63
2024/01/12 02:19:15;;;;;;;;;;;;;;;19.93;39.15;102523.59;2059477;28;2144;-63
2024/01/12 02:20:17;;;;;;;;;;;;;;;19.94;39.12;102524.34;2059599;28;2242;-64
2024/01/12 02:21:18;;;;;;;;;;;;;;;19.94;39.16;102521.47;2058447;28;2230;-64
2024/01/12 02:22:21;;;;;;;;;;;;;;;19.91;39.24;102517.69;2057277;28;2091;-64
2024/01/12 02:23:22;;;;;;;;;;;;;;;19.93;39.20;102514.19;2058978;28;2130;-63
2024/01/12 02:24:23;;;;;;;;;;;;;;;19.92;39.26;102524.94;2058918;28;2136;-64
2024/01/12 02:25:25;;;;;;;;;;;;;;;19.92;39.15;102522.06;2058900;28;2150;-64
2024/01/12 02:26:26;;;;;;;;;;;;;;;19.92;39.18;102530.69;2058254;28;2117;-63
2024/01/12 02:27:28;;;;;;;;;;;;;;;19.91;39.07;102534.94;2055140;28;2108;-64
2024/01/12 02:28:30;;;;;;;;;;;;;;;19.92;39.22;102524.19;2058015;28;2158;-63
2024/01/12 02:29:31;;;;;;;;;;;;;;;19.91;39.09;102523.44;2060477;28;1662;-63
2024/01/12 02:30:32;;;;;;;;;;;;;;;19.90;39.18;102521.91;2056959;28;6351;-64
2024/01/12 02:31:34;;;;;;;;;;;;;;;19.91;39.10;102528.44;2055714;28;1682;-64
2024/01/12 02:32:35;;;;;;;;;;;;;;;19.91;39.17;102528.44;2065006;28;2212;-64
2024/01/12 02:33:37;;;;;;;;;;;;;;;19.90;39.25;102532.66;2060678;28;2127;-63
2024/01/12 02:34:38;;;;;;;;;;;;;;;19.89;39.23;102529.03;2059356;28;2088;-63
2024/01/12 02:35:40;;;;;;;;;;;;;;;19.89;39.25;102531.91;2059891;28;2082;-64
2024/01/12 02:36:41;;;;;;;;;;;;;;;19.90;39.06;102533.41;2060165;28;2415;-64
2024/01/12 02:37:43;;;;;;;;;;;;;;;19.90;39.05;102530.53;2061525;28;2200;-64
2024/01/12 02:38:48;;;;;;;;;;;;;;;19.90;39.08;102539.16;2059351;28;1729;-64
2024/01/12 02:39:50;;;;;;;;;;;;;;;19.90;39.08;102539.16;2061470;28;2052;-64
2024/01/12 02:40:51;;;;;;;;;;;;;;;19.90;39.11;102544.91;2067767;28;1626;-63
2024/01/12 02:41:57;;;;;;;;;;;;;;;19.90;39.13;102539.16;2059612;28;1923;-64
2024/01/12 02:42:59;;;;;;;;;;;;;;;19.90;39.37;102550.66;2059990;28;1659;-64
2024/01/12 02:44:01;;;;;;;;;;;;;;;19.91;39.02;102537.81;2063123;28;2112;-64
2024/01/12 02:45:02;;;;;;;;;;;;;;;19.92;39.03;102539.31;2058599;28;1678;-64
2024/01/12 02:46:04;;;;;;;;;;;;;;;19.92;39.08;102542.19;2060584;28;2133;-64
2024/01/12 02:47:06;;;;;;;;;;;;;;;19.92;39.15;102535.69;2062496;28;2122;-64
2024/01/12 02:48:08;;;;;;;;;;;;;;;19.91;39.10;102540.69;2059149;28;2133;-63
2024/01/12 02:49:09;;;;;;;;;;;;;;;19.94;39.10;102539.47;2060551;28;2358;-64
2024/01/12 02:50:11;;;;;;;;;;;;;;;19.94;38.83;102539.47;2062103;28;2099;-64
2024/01/12 02:51:13;;;;;;;;;;;;;;;19.93;39.08;102537.97;2059174;28;2127;-64
2024/01/12 02:52:14;;;;;;;;;;;;;;;19.94;39.13;102533.72;2060102;28;2098;-64
2024/01/12 02:53:16;;;;;;;;;;;;;;;19.93;39.12;102537.19;2060966;28;2079;-64
2024/01/12 02:54:17;;;;;;;;;;;;;;;19.92;39.22;102539.31;2057417;28;2263;-64
2024/01/12 02:55:19;;;;;;;;;;;;;;;19.93;39.17;102537.19;2065248;28;1843;-63
2024/01/12 02:56:21;;;;;;;;;;;;;;;19.92;39.18;102535.69;2060874;28;2154;-63
2024/01/12 02:57:22;;;;;;;;;;;;;;;19.92;39.11;102539.31;2062514;28;2094;-64
2024/01/12 02:58:24;;;;;;;;;;;;;;;19.91;39.22;102539.94;2058295;28;2510;-64
2024/01/12 02:59:25;;;;;;;;;;;;;;;19.89;39.17;102540.53;2060123;28;2066;-64
2024/01/12 03:00:30;;;;;;;;;;;;;;;19.90;39.24;102547.78;2059644;28;6813;-63
2024/01/12 03:01:34;;;;;;;;;;;;;;;19.88;39.30;102536.91;2058164;28;2140;-64
2024/01/12 03:02:35;;;;;;;;;;;;;;;19.89;39.31;102540.53;2058879;28;2165;-64
2024/01/12 03:03:37;;;;;;;;;;;;;;;19.88;39.25;102536.91;2061047;28;2129;-64
2024/01/12 03:04:38;;;;;;;;;;;;;;;19.89;39.26;102534.78;2059728;28;2090;-64
2024/01/12 03:05:40;;;;;;;;;;;;;;;19.89;39.16;102531.91;2060788;28;2266;-64
2024/01/12 03:06:41;;;;;;;;;;;;;;;19.89;39.19;102537.66;2060186;28;2126;-63
2024/01/12 03:07:43;;;;;;;;;;;;;;;19.89;39.22;102531.91;2056869;28;2143;-64
2024/01/12 03:08:44;;;;;;;;;;;;;;;19.88;39.15;102530.38;2060959;28;1650;-64
2024/01/12 03:09:46;;;;;;;;;;;;;;;19.88;39.15;102521.75;2062076;28;1872;-64
2024/01/12 03:10:47;;;;;;;;;;;;;;;19.88;39.21;102530.38;2061519;28;1790;-64
2024/01/12 03:11:48;;;;;;;;;;;;;;;19.87;39.23;102528.88;2062311;28;1588;-64
2024/01/12 03:12:50;;;;;;;;;;;;;;;19.87;39.21;102528.88;2062062;28;1806;-64
2024/01/12 03:13:52;;;;;;;;;;;;;;;19.87;39.22;102517.38;2060898;28;1521;-63
2024/01/12 03:14:53;;;;;;;;;;;;;;;19.87;39.13;102517.38;2062167;28;2112;-64
2024/01/12 03:15:55;;;;;;;;;;;;;;;19.87;39.30;102526.00;2056134;28;2121;-64
2024/01/12 03:16:56;;;;;;;;;;;;;;;19.86;39.26;102521.63;2059561;28;2106;-63
2024/01/12 03:17:58;;;;;;;;;;;;;;;19.87;39.25;102523.13;2060768;28;2120;-63
2024/01/12 03:18:59;;;;;;;;;;;;;;;19.87;39.22;102523.13;2059057;28;2133;-64
2024/01/12 03:20:02;;;;;;;;;;;;;;;19.88;39.14;102518.88;2058009;28;2175;-64
2024/01/12 03:21:03;;;;;;;;;;;;;;;19.88;39.09;102530.38;2058949;28;2180;-63
2024/01/12 03:22:05;;;;;;;;;;;;;;;19.88;39.12;102530.38;2059916;28;2176;-63
2024/01/12 03:23:06;;;;;;;;;;;;;;;19.88;39.25;102524.63;2061562;28;2160;-64
2024/01/12 03:24:08;;;;;;;;;;;;;;;19.89;39.15;102531.91;2059306;28;2126;-63
2024/01/12 03:25:09;;;;;;;;;;;;;;;19.89;39.03;102529.03;2060606;28;2209;-63
2024/01/12 03:26:10;;;;;;;;;;;;;;;19.90;39.10;102532.66;2060459;28;2093;-64
2024/01/12 03:27:12;;;;;;;;;;;;;;;19.91;39.18;102532.06;2059301;28;2109;-63
2024/01/12 03:28:13;;;;;;;;;;;;;;;19.90;39.11;102533.41;2062926;28;2090;-64
2024/01/12 03:29:14;;;;;;;;;;;;;;;19.90;39.19;102519.03;2057148;28;2103;-63
2024/01/12 03:30:16;;;;;;;;;;;;;;;19.89;39.08;102520.41;2059664;28;6273;-63
2024/01/12 03:31:18;;;;;;;;;;;;;;;19.90;39.20;102516.16;2060335;28;2113;-64
2024/01/12 03:32:20;;;;;;;;;;;;;;;19.90;39.06;102504.66;2059163;28;2165;-64
2024/01/12 03:33:22;;;;;;;;;;;;;;;19.90;39.12;102509.66;2058962;28;2226;-64
2024/01/12 03:34:24;;;;;;;;;;;;;;;19.90;39.02;102504.66;2060222;28;2248;-64
2024/01/12 03:35:26;;;;;;;;;;;;;;;19.90;39.25;102501.78;2058079;28;2154;-64
2024/01/12 03:36:28;;;;;;;;;;;;;;;19.90;39.17;102504.66;2060305;28;2213;-63
2024/01/12 03:37:29;;;;;;;;;;;;;;;19.91;39.27;102499.69;2058745;28;2065;-64
2024/01/12 03:38:31;;;;;;;;;;;;;;;19.89;39.07;102491.66;2059309;28;2326;-64
2024/01/12 03:39:32;;;;;;;;;;;;;;;19.90;39.23;102486.66;2059720;28;2083;-63
2024/01/12 03:40:34;;;;;;;;;;;;;;;19.90;39.22;102481.66;2059244;28;2105;-64
2024/01/12 03:41:35;;;;;;;;;;;;;;;19.90;39.16;102487.41;2058386;28;2002;-64
2024/01/12 03:42:36;;;;;;;;;;;;;;;19.91;39.16;102483.19;2059071;28;2134;-64
2024/01/12 03:43:38;;;;;;;;;;;;;;;19.92;39.11;102481.81;2058976;28;2113;-64
2024/01/12 03:44:39;;;;;;;;;;;;;;;19.93;39.18;102482.56;2062910;28;1742;-63
2024/01/12 03:45:41;;;;;;;;;;;;;;;19.92;39.27;102478.94;2058961;28;2325;-63
2024/01/12 03:46:43;;;;;;;;;;;;;;;19.93;39.25;102480.47;2059556;28;2124;-64
2024/01/12 03:47:44;;;;;;;;;;;;;;;19.93;39.16;102473.94;2061147;28;2101;-64
2024/01/12 03:48:46;;;;;;;;;;;;;;;19.93;39.17;102485.44;2060279;28;2140;-64
2024/01/12 03:49:48;;;;;;;;;;;;;;;19.93;39.29;102477.59;2060879;28;2341;-64
2024/01/12 03:50:49;;;;;;;;;;;;;;;19.94;39.25;102476.22;2060284;28;2145;-63
2024/01/12 03:51:54;;;;;;;;;;;;;;;19.94;39.16;102470.47;2059737;28;2169;-64
2024/01/12 03:52:55;;;;;;;;;;;;;;;19.94;39.11;102470.47;2059185;28;2094;-64
2024/01/12 03:53:57;;;;;;;;;;;;;;;19.94;39.12;102467.59;2056313;28;2115;-64
2024/01/12 03:54:58;;;;;;;;;;;;;;;19.95;39.20;102466.25;2061410;28;2153;-64
2024/01/12 03:56:00;;;;;;;;;;;;;;;19.96;39.11;102461.25;2059341;28;2138;-64
2024/01/12 03:57:02;;;;;;;;;;;;;;;19.97;39.11;102459.88;2060137;28;2140;-63
2024/01/12 03:58:04;;;;;;;;;;;;;;;19.98;39.15;102458.50;2061255;28;2094;-64
2024/01/12 03:59:05;;;;;;;;;;;;;;;19.96;39.08;102459.13;2060414;28;2272;-64
2024/01/12 04:00:08;;;;;;;;;;;;;;;19.98;39.13;102455.63;2057487;28;6068;-64
2024/01/12 04:01:09;;;;;;;;;;;;;;;19.98;39.09;102458.50;2060676;28;2141;-63
2024/01/12 04:02:11;;;;;;;;;;;;;;;19.98;39.13;102459.25;2060128;28;2408;-64
2024/01/12 04:03:12;;;;;;;;;;;;;;;19.99;39.35;102460.75;2059333;28;2054;-64
2024/01/12 04:04:14;;;;;;;;;;;;;;;20.00;39.13;102455.78;2058171;28;2277;-64
2024/01/12 04:05:15;;;;;;;;;;;;;;;19.99;39.16;102466.50;2058723;28;2086;-62
2024/01/12 04:06:18;;;;;;;;;;;;;;;19.99;39.12;102466.50;2056978;28;2074;-63
2024/01/12 04:07:19;;;;;;;;;;;;;;;20.00;39.07;102467.28;2060192;28;1729;-64
2024/01/12 04:08:21;;;;;;;;;;;;;;;20.00;39.13;102468.03;2058679;28;2150;-63
2024/01/12 04:09:22;;;;;;;;;;;;;;;20.00;39.17;102462.28;2060393;28;2098;-64
2024/01/12 04:10:24;;;;;;;;;;;;;;;20.02;39.11;102465.31;2059454;28;2150;-64
2024/01/12 04:11:25;;;;;;;;;;;;;;;20.01;39.09;102455.16;2061289;28;2149;-64
2024/01/12 04:12:27;;;;;;;;;;;;;;;20.01;39.10;102452.28;2058749;28;2356;-63
2024/01/12 04:13:28;;;;;;;;;;;;;;;20.01;39.07;102458.03;2059512;28;2365;-64
2024/01/12 04:14:30;;;;;;;;;;;;;;;20.02;39.15;102453.81;2060387;28;2184;-64
2024/01/12 04:15:36;;;;;;;;;;;;;;;20.02;39.19;102442.31;2060534;28;2085;-64
2024/01/12 04:16:37;;;;;;;;;;;;;;;20.03;39.20;102448.81;2060250;28;2102;-64
2024/01/12 04:17:39;;;;;;;;;;;;;;;20.01;39.17;102449.41;2059472;28;2398;-64
2024/01/12 04:18:41;;;;;;;;;;;;;;;20.02;39.02;102453.81;2059397;28;2145;-63
2024/01/12 04:19:43;;;;;;;;;;;;;;;20.02;39.03;102453.81;2058458;28;2208;-64
2024/01/12 04:20:44;;;;;;;;;;;;;;;20.02;39.04;102458.78;2059754;28;2126;-64
2024/01/12 04:21:46;;;;;;;;;;;;;;;20.01;39.16;102457.28;2059648;28;2204;-63
2024/01/12 04:22:47;;;;;;;;;;;;;;;20.01;39.25;102449.41;2057022;28;3646;-64
2024/01/12 04:23:48;;;;;;;;;;;;;;;20.01;39.26;102449.41;2062070;28;2183;-64
2024/01/12 04:24:50;;;;;;;;;;;;;;;20.01;39.26;102448.66;2058717;28;2133;-64
2024/01/12 04:25:52;;;;;;;;;;;;;;;20.00;39.15;102453.66;2059338;28;2129;-64
2024/01/12 04:26:54;;;;;;;;;;;;;;;20.00;39.10;102456.53;2058352;28;2149;-64
2024/01/12 04:27:55;;;;;;;;;;;;;;;20.00;39.16;102456.53;2059038;28;2185;-64
2024/01/12 04:28:57;;;;;;;;;;;;;;;20.00;39.25;102450.78;2060264;28;2166;-64
2024/01/12 04:29:58;;;;;;;;;;;;;;;19.99;39.30;102449.25;2058794;28;2207;-64
2024/01/12 04:31:03;;;;;;;;;;;;;;;19.99;39.22;102452.13;2058260;28;6087;-64
2024/01/12 04:32:04;;;;;;;;;;;;;;;20.00;39.13;102455.78;2058273;28;2182;-64
2024/01/12 04:33:06;;;;;;;;;;;;;;;19.99;39.21;102460.75;2061721;28;1624;-63
2024/01/12 04:34:08;;;;;;;;;;;;;;;20.01;39.21;102463.78;2058532;28;1999;-64
2024/01/12 04:35:09;;;;;;;;;;;;;;;20.01;39.18;102468.78;2059829;28;1690;-64
2024/01/12 04:36:11;;;;;;;;;;;;;;;20.01;39.11;102469.53;2061069;28;1615;-63
2024/01/12 04:37:13;;;;;;;;;;;;;;;19.99;39.31;102460.75;2058534;28;2201;-64
2024/01/12 04:38:15;;;;;;;;;;;;;;;20.00;39.22;102465.16;2059368;28;2105;-63
2024/01/12 04:39:16;;;;;;;;;;;;;;;20.02;39.12;102456.69;2060149;28;2125;-64
2024/01/12 04:40:18;;;;;;;;;;;;;;;20.01;39.16;102449.41;2059452;28;2145;-64
2024/01/12 04:41:19;;;;;;;;;;;;;;;20.02;39.31;102453.81;2058939;28;2223;-64
2024/01/12 04:42:21;;;;;;;;;;;;;;;20.01;39.29;102455.16;2060523;28;2112;-64
2024/01/12 04:43:22;;;;;;;;;;;;;;;20.03;39.25;102446.69;2060015;28;2193;-64
2024/01/12 04:44:24;;;;;;;;;;;;;;;20.02;39.15;102442.31;2059102;28;2053;-63
2024/01/12 04:45:25;;;;;;;;;;;;;;;20.04;39.20;102453.97;2060464;28;2165;-64
2024/01/12 04:46:27;;;;;;;;;;;;;;;20.03;39.20;102443.81;2057322;28;2196;-64
2024/01/12 04:47:29;;;;;;;;;;;;;;;20.03;39.13;102434.44;2060614;28;2114;-64
2024/01/12 04:48:31;;;;;;;;;;;;;;;20.04;39.07;102442.47;2060473;28;2201;-64
2024/01/12 04:49:33;;;;;;;;;;;;;;;20.05;39.03;102438.22;2059545;28;2098;-64
2024/01/12 04:50:34;;;;;;;;;;;;;;;20.05;39.05;102440.34;2064297;28;1621;-64
2024/01/12 04:51:35;;;;;;;;;;;;;;;20.04;39.11;102436.72;2059104;28;1940;-64
2024/01/12 04:52:37;;;;;;;;;;;;;;;20.06;39.20;102442.59;2062280;28;1638;-64
2024/01/12 04:53:38;;;;;;;;;;;;;;;20.05;39.12;102443.97;2061619;28;1718;-64
2024/01/12 04:54:40;;;;;;;;;;;;;;;20.06;39.08;102442.59;2057818;28;2010;-64
2024/01/12 04:55:41;;;;;;;;;;;;;;;20.07;39.16;102437.63;2057871;28;2333;-64
2024/01/12 04:56:43;;;;;;;;;;;;;;;20.07;39.16;102449.88;2059492;28;2236;-63
2024/01/12 04:57:44;;;;;;;;;;;;;;;20.07;39.13;102446.25;2057411;28;2059;-64
2024/01/12 04:58:45;;;;;;;;;;;;;;;20.07;39.06;102454.88;2058695;28;2330;-64
2024/01/12 04:59:47;;;;;;;;;;;;;;;20.07;39.17;102449.13;2058259;28;2183;-64
2024/01/12 05:00:48;;;;;;;;;;;;;;;20.08;39.19;102444.88;2059174;28;6575;-64
2024/01/12 05:01:50;;;;;;;;;;;;;;;20.08;39.12;102447.75;2057368;28;2381;-62
2024/01/12 05:02:51;;;;;;;;;;;;;;;20.07;39.28;102447.00;2058856;28;2121;-63
2024/01/12 05:03:53;;;;;;;;;;;;;;;20.08;39.26;102442.75;2058923;28;2432;-64
2024/01/12 05:04:54;;;;;;;;;;;;;;;20.09;39.20;102449.28;2064156;28;2019;-63
2024/01/12 05:05:56;;;;;;;;;;;;;;;20.08;39.13;102451.38;2058729;28;2054;-64
2024/01/12 05:06:57;;;;;;;;;;;;;;;20.08;39.20;102453.50;2063242;28;1626;-63
2024/01/12 05:07:59;;;;;;;;;;;;;;;20.08;39.22;102457.13;2058917;28;1665;-62
2024/01/12 05:09:00;;;;;;;;;;;;;;;20.08;39.36;102460.00;2060559;28;1529;-63
2024/01/12 05:10:03;;;;;;;;;;;;;;;20.08;39.32;102462.13;2058594;28;2085;-63
2024/01/12 05:11:05;;;;;;;;;;;;;;;20.07;39.17;102467.13;2060928;28;2194;-63
2024/01/12 05:12:06;;;;;;;;;;;;;;;20.06;39.28;102459.84;2057415;28;2093;-63
2024/01/12 05:13:08;;;;;;;;;;;;;;;20.04;39.19;102465.47;2058937;28;2168;-63
2024/01/12 05:14:09;;;;;;;;;;;;;;;20.04;39.15;102468.34;2059287;28;2184;-63
2024/01/12 05:15:11;;;;;;;;;;;;;;;20.05;39.31;102464.09;2052846;28;1735;-63
2024/01/12 05:16:12;;;;;;;;;;;;;;;20.05;39.25;102464.09;2055209;28;1797;-63
2024/01/12 05:17:14;;;;;;;;;;;;;;;20.06;39.34;102467.72;2063954;28;1635;-63
2024/01/12 05:18:15;;;;;;;;;;;;;;;20.05;39.22;102469.09;2061098;28;1576;-63
2024/01/12 05:19:17;;;;;;;;;;;;;;;20.05;39.33;102471.97;2061397;28;2104;-64
2024/01/12 05:20:21;;;;;;;;;;;;;;;20.05;39.30;102464.09;2059134;28;1996;-64
2024/01/12 05:21:22;;;;;;;;;;;;;;;20.04;39.25;102468.34;2059012;28;2095;-65